Time;durP1;ratioP1;P1;durP2;ratioP2;P2;SDS_P1;SDS_P2;PMS_P1;PMS_P2;Temp;Humidity;BMP_temperature;BMP_pressure;BME280_temperature;BME280_humidity;BME280_pressure;Samples;Min_cycle;Max_cycle;Signal;HPM_P1;HPM_P2
2023/02/12 00:00:00;;;;;;;32.95;18.98;;;7.70;99.90;;;;;;5050876;28;20033;-45
2023/02/12 00:02:26;;;;;;;28.00;18.05;;;7.70;99.90;;;;;;5051474;28;20383;-45
2023/02/12 00:04:51;;;;;;;32.25;19.23;;;7.70;99.90;;;;;;5051967;28;20025;-45
2023/02/12 00:07:17;;;;;;;29.60;17.77;;;7.70;99.90;;;;;;5050758;28;20025;-45
2023/02/12 00:09:43;;;;;;;34.85;19.38;;;7.70;99.90;;;;;;5051874;28;20423;-46
2023/02/12 00:12:09;;;;;;;30.08;17.48;;;7.70;99.90;;;;;;5050299;28;20021;-45
2023/02/12 00:14:36;;;;;;;31.13;18.42;;;7.70;99.90;;;;;;5051743;28;20431;-51
2023/02/12 00:17:02;;;;;;;29.80;17.55;;;7.70;99.90;;;;;;5051110;28;20159;-46
2023/02/12 00:19:28;;;;;;;26.02;16.35;;;7.70;99.90;;;;;;5050771;28;20029;-46
2023/02/12 00:21:54;;;;;;;25.60;16.52;;;7.70;99.90;;;;;;5051048;28;20480;-45
2023/02/12 00:24:19;;;;;;;26.88;16.70;;;7.70;99.90;;;;;;5050387;28;20025;-46
2023/02/12 00:26:47;;;;;;;26.90;16.17;;;7.70;99.90;;;;;;5051216;28;20028;-46
2023/02/12 00:29:13;;;;;;;25.95;16.15;;;7.70;99.90;;;;;;5065798;28;20239;-45
2023/02/12 00:31:38;;;;;;;23.30;15.90;;;7.70;99.90;;;;;;5049029;28;20384;-45
2023/02/12 00:34:04;;;;;;;25.92;17.60;;;7.70;99.90;;;;;;5051036;28;20032;-46
2023/02/12 00:36:31;;;;;;;23.55;15.63;;;7.70;99.90;;;;;;5050684;28;20021;-49
2023/02/12 00:38:56;;;;;;;26.33;15.85;;;7.70;99.90;;;;;;5051471;28;20466;-46
2023/02/12 00:41:22;;;;;;;27.05;15.27;;;7.70;99.90;;;;;;5050374;28;20047;-45
2023/02/12 00:43:48;;;;;;;24.92;15.65;;;7.70;99.90;;;;;;5049730;28;20036;-45
2023/02/12 00:46:14;;;;;;;27.75;15.45;;;7.70;99.90;;;;;;5050821;28;20151;-46
2023/02/12 00:48:40;;;;;;;27.98;16.15;;;7.70;99.90;;;;;;5050729;28;20092;-45
2023/02/12 00:51:06;;;;;;;26.25;15.25;;;7.70;99.90;;;;;;5049637;28;20552;-45
2023/02/12 00:53:32;;;;;;;28.45;16.92;;;7.70;99.90;;;;;;5059098;28;20020;-44
2023/02/12 00:55:58;;;;;;;23.05;15.20;;;7.70;99.90;;;;;;5062553;28;20028;-45
2023/02/12 00:58:24;;;;;;;25.63;15.23;;;7.70;99.90;;;;;;5050435;28;20029;-46
2023/02/12 01:00:50;;;;;;;21.23;14.30;;;7.70;99.90;;;;;;5050288;28;20031;-45
2023/02/12 01:03:15;;;;;;;28.63;16.50;;;7.70;99.90;;;;;;5050408;28;20471;-44
2023/02/12 01:05:42;;;;;;;26.17;15.68;;;7.70;99.90;;;;;;5050977;28;20113;-47
2023/02/12 01:08:09;;;;;;;23.73;14.13;;;7.70;99.90;;;;;;5051102;28;20021;-45
2023/02/12 01:10:35;;;;;;;24.15;13.80;;;7.70;99.90;;;;;;5050462;28;20111;-45
2023/02/12 01:13:00;;;;;;;25.42;14.80;;;7.70;99.90;;;;;;5050471;28;20325;-45
2023/02/12 01:15:26;;;;;;;23.05;14.38;;;7.60;99.90;;;;;;5050637;28;20442;-45
2023/02/12 01:17:53;;;;;;;22.35;12.48;;;7.60;99.90;;;;;;5050908;28;20024;-47
2023/02/12 01:20:21;;;;;;;22.95;13.63;;;7.60;99.90;;;;;;5050315;28;20040;-45
2023/02/12 01:22:47;;;;;;;24.25;14.02;;;7.70;99.90;;;;;;5065587;28;20376;-46
2023/02/12 01:25:13;;;;;;;21.17;13.25;;;7.60;99.90;;;;;;5050084;28;20027;-45
2023/02/12 01:27:39;;;;;;;24.05;13.95;;;7.60;99.90;;;;;;5050028;28;20025;-45
2023/02/12 01:30:07;;;;;;;22.23;13.93;;;7.70;99.90;;;;;;5050484;28;20110;-45
2023/02/12 01:32:33;;;;;;;26.15;13.90;;;7.70;99.90;;;;;;5049897;28;20098;-45
2023/02/12 01:34:59;;;;;;;24.40;13.68;;;7.70;99.90;;;;;;5049094;28;20104;-47
2023/02/12 01:37:25;;;;;;;25.00;13.68;;;7.70;99.90;;;;;;5050475;28;20452;-47
2023/02/12 01:39:50;;;;;;;21.30;13.13;;;7.70;99.90;;;;;;5050110;28;20029;-45
2023/02/12 01:42:18;;;;;;;25.77;13.85;;;7.70;99.90;;;;;;5049519;28;20026;-45
2023/02/12 01:45:11;;;;;;;25.25;13.70;;;7.70;99.90;;;;;;5049238;28;20056;-45
2023/02/12 01:47:41;;;;;;;24.70;13.07;;;7.60;99.90;;;;;;5050500;28;20029;-45
2023/02/12 01:50:10;;;;;;;27.80;14.60;;;7.60;99.90;;;;;;5048903;28;20043;-44
2023/02/12 01:52:38;;;;;;;25.65;14.40;;;7.60;99.90;;;;;;5049593;28;20350;-45
2023/02/12 01:55:07;;;;;;;26.63;14.10;;;7.60;99.90;;;;;;5049880;28;20206;-45
2023/02/12 01:57:36;;;;;;;22.70;14.32;;;7.60;99.90;;;;;;5057847;28;20028;-44
2023/02/12 02:00:06;;;;;;;28.58;15.63;;;7.70;99.90;;;;;;5050010;28;20098;-45
2023/02/12 02:02:33;;;;;;;27.98;15.88;;;7.70;99.90;;;;;;5049505;28;20104;-44
2023/02/12 02:05:02;;;;;;;30.90;16.05;;;7.60;99.90;;;;;;5049656;28;20388;-44
2023/02/12 02:07:27;;;;;;;26.65;15.15;;;7.60;99.90;;;;;;5050096;28;20101;-44
2023/02/12 02:09:54;;;;;;;28.88;15.75;;;7.60;99.90;;;;;;5049437;28;20583;-44
2023/02/12 02:15:06;;;;;;;28.38;16.27;;;7.60;99.90;;;;;;5049954;28;20582;-44
2023/02/12 02:17:52;;;;;;;32.63;16.05;;;7.60;99.90;;;;;;5064730;28;20033;-45
2023/02/12 02:20:48;;;;;;;33.22;16.75;;;7.60;99.90;;;;;;5049206;28;20766;-44
2023/02/12 02:23:58;;;;;;;31.98;18.17;;;7.60;99.90;;;;;;5049571;28;20104;-45
2023/02/12 02:27:04;;;;;;;28.23;15.70;;;7.60;99.90;;;;;;5068318;28;20060;-45
2023/02/12 02:30:02;;;;;;;27.67;15.73;;;7.60;99.90;;;;;;5040636;28;20020;-46
2023/02/12 02:32:41;;;;;;;32.25;17.20;;;7.60;99.90;;;;;;5063912;28;20052;-45
2023/02/12 02:36:01;;;;;;;34.15;17.42;;;7.60;99.90;;;;;;5049175;28;20305;-45
2023/02/12 02:38:36;;;;;;;30.30;17.20;;;7.60;99.90;;;;;;5024379;28;20404;-45
2023/02/12 02:41:10;;;;;;;39.45;16.85;;;7.60;99.90;;;;;;5048393;28;20033;-45
2023/02/12 02:43:51;;;;;;;36.35;18.27;;;7.60;99.90;;;;;;5048745;28;20032;-44
2023/02/12 02:46:35;;;;;;;33.60;16.92;;;7.60;99.90;;;;;;5048857;28;20029;-44
2023/02/12 02:49:16;;;;;;;39.20;18.30;;;7.60;99.90;;;;;;5064444;28;20060;-44
2023/02/12 02:51:47;;;;;;;38.13;18.73;;;7.60;99.90;;;;;;5048622;28;20103;-45
2023/02/12 02:54:15;;;;;;;;;;;7.60;99.90;;;;;;5047118;28;20017;-45
2023/02/12 02:56:46;;;;;;;38.17;17.75;;;7.60;99.90;;;;;;5064245;28;19905;-45
2023/02/12 02:59:18;;;;;;;35.03;18.00;;;7.60;99.90;;;;;;5056734;28;20462;-45
2023/02/12 03:02:09;;;;;;;37.00;18.30;;;7.60;99.90;;;;;;5048316;28;20032;-44
2023/02/12 03:04:45;;;;;;;33.13;17.88;;;7.60;99.90;;;;;;5048949;28;20025;-44
2023/02/12 03:07:17;;;;;;;38.25;19.25;;;7.60;99.90;;;;;;5047655;28;20218;-45
2023/02/12 03:09:49;;;;;;;37.10;18.25;;;7.60;99.90;;;;;;5048648;28;20071;-44
2023/02/12 03:12:21;;;;;;;34.92;19.58;;;7.60;99.90;;;;;;5048264;28;20017;-45
2023/02/12 03:14:53;;;;;;;37.75;19.08;;;7.50;99.90;;;;;;5048899;28;20032;-44
2023/02/12 03:17:27;;;;;;;39.38;18.73;;;7.50;99.90;;;;;;5049031;28;20033;-44
2023/02/12 03:20:00;;;;;;;39.72;20.00;;;7.60;99.90;;;;;;5048468;28;20041;-45
2023/02/12 03:22:30;;;;;;;41.42;19.92;;;7.50;99.90;;;;;;5066527;28;20066;-45
2023/02/12 03:25:11;;;;;;;39.33;19.00;;;7.50;99.90;;;;;;5051354;28;20029;-45
2023/02/12 03:28:08;;;;;;;38.05;18.60;;;7.50;99.90;;;;;;5048288;28;20028;-46
2023/02/12 03:31:09;;;;;;;44.67;19.67;;;7.50;99.90;;;;;;5032344;28;20062;-46
2023/02/12 03:33:43;;;;;;;37.35;18.38;;;7.50;99.90;;;;;;5064696;28;20492;-46
2023/02/12 03:36:33;;;;;;;36.95;19.40;;;7.50;99.90;;;;;;5069321;28;20087;-46
2023/02/12 03:39:07;;;;;;;44.58;21.70;;;7.60;99.90;;;;;;5068922;28;20020;-45
2023/02/12 03:41:48;;;;;;;47.72;23.42;;;7.50;99.90;;;;;;5068173;28;20031;-44
2023/02/12 03:44:16;;;;;;;46.00;21.77;;;7.50;99.90;;;;;;5066678;28;20115;-47
2023/02/12 03:46:54;;;;;;;46.70;21.50;;;7.50;99.90;;;;;;5083866;28;20032;-45
2023/02/12 03:49:29;;;;;;;43.33;22.25;;;7.50;99.90;;;;;;5068444;28;20017;-48
2023/02/12 03:51:57;;;;;;;46.53;21.15;;;7.50;99.90;;;;;;5066523;28;20455;-47
2023/02/12 03:54:23;;;;;;;47.70;21.73;;;7.50;99.90;;;;;;5048104;28;20476;-46
2023/02/12 03:56:51;;;;;;;49.17;21.48;;;7.50;99.90;;;;;;5063462;28;20033;-46
2023/02/12 03:59:22;;;;;;;40.42;20.60;;;7.50;99.90;;;;;;5046840;28;20029;-46
2023/02/12 04:01:48;;;;;;;43.33;20.85;;;7.50;99.90;;;;;;5047986;28;20025;-48
2023/02/12 04:04:15;;;;;;;44.97;20.38;;;7.50;99.90;;;;;;5047098;28;20465;-48
2023/02/12 04:06:41;;;;;;;41.33;18.75;;;7.50;99.90;;;;;;5048253;28;20029;-46
2023/02/12 04:09:08;;;;;;;42.83;20.42;;;7.50;99.90;;;;;;5051119;28;20028;-46
2023/02/12 04:12:01;;;;;;;43.35;20.13;;;7.50;99.90;;;;;;5051575;28;20032;-47
2023/02/12 04:14:44;;;;;;;40.83;18.95;;;7.50;99.90;;;;;;5051569;28;20044;-47
2023/02/12 04:17:25;;;;;;;38.10;19.73;;;7.50;99.90;;;;;;5051827;28;20377;-45
2023/02/12 04:20:18;;;;;;;41.55;17.95;;;7.50;99.90;;;;;;5051094;28;20081;-46
2023/02/12 04:23:25;;;;;;;40.95;19.13;;;7.40;99.90;;;;;;5048812;28;20024;-47
2023/02/12 04:26:09;;;;;;;41.38;18.70;;;7.40;99.90;;;;;;5049013;28;20502;-46
2023/02/12 04:28:44;;;;;;;38.30;18.73;;;7.40;99.90;;;;;;5048977;28;20048;-48
2023/02/12 04:31:51;;;;;;;38.92;19.33;;;7.40;99.90;;;;;;5047922;28;20302;-45
2023/02/12 04:34:19;;;;;;;36.92;17.77;;;7.40;99.90;;;;;;5050926;28;20531;-49
2023/02/12 04:36:55;;;;;;;42.03;18.60;;;7.40;99.90;;;;;;5050910;28;20068;-46
2023/02/12 04:39:25;;;;;;;43.88;19.10;;;7.40;99.90;;;;;;5047684;28;20472;-38
2023/02/12 04:41:51;;;;;;;37.33;19.23;;;7.40;99.90;;;;;;5048721;28;20036;-38
2023/02/12 04:44:29;;;;;;;34.47;18.42;;;7.40;99.90;;;;;;5048925;28;20272;-38
2023/02/12 04:46:55;;;;;;;40.97;18.05;;;7.40;99.90;;;;;;5049171;28;20075;-38
2023/02/12 04:49:22;;;;;;;39.70;18.63;;;7.40;99.90;;;;;;5049308;28;20029;-38
2023/02/12 04:51:48;;;;;;;37.72;18.33;;;7.40;99.90;;;;;;5047580;28;20440;-38
2023/02/12 04:54:16;;;;;;;41.63;18.85;;;7.40;99.90;;;;;;5046591;28;20032;-38
2023/02/12 04:56:42;;;;;;;45.75;19.42;;;7.30;99.90;;;;;;5048361;28;20021;-38
2023/02/12 04:59:08;;;;;;;43.22;18.85;;;7.30;99.90;;;;;;5049607;28;20304;-38
2023/02/12 05:01:35;;;;;;;37.30;18.98;;;7.30;99.90;;;;;;5048424;28;20029;-38
2023/02/12 05:04:01;;;;;;;40.58;19.70;;;7.30;99.90;;;;;;5047794;28;20510;-38
2023/02/12 05:06:27;;;;;;;44.10;20.17;;;7.30;99.90;;;;;;5050745;28;20033;-38
2023/02/12 05:08:53;;;;;;;38.90;18.52;;;7.30;99.90;;;;;;5050434;28;20476;-38
2023/02/12 05:11:18;;;;;;;41.53;18.75;;;7.30;99.90;;;;;;5049977;28;20029;-38
2023/02/12 05:13:49;;;;;;;43.17;19.05;;;7.30;99.90;;;;;;5049999;28;20395;-38
2023/02/12 05:16:15;;;;;;;41.28;18.85;;;7.30;99.90;;;;;;5051067;28;20025;-49
2023/02/12 05:18:40;;;;;;;44.22;19.60;;;7.30;99.90;;;;;;5050728;28;20109;-46
2023/02/12 05:21:06;;;;;;;40.67;20.83;;;7.30;99.90;;;;;;5058775;28;20079;-39
2023/02/12 05:23:34;;;;;;;45.17;19.02;;;7.30;99.90;;;;;;5054805;28;20071;-46
2023/02/12 05:26:02;;;;;;;35.35;17.85;;;7.30;99.90;;;;;;5049937;28;20400;-46
2023/02/12 05:28:28;;;;;;;43.78;19.70;;;7.20;99.90;;;;;;5050021;28;20476;-47
2023/02/12 05:30:54;;;;;;;39.53;18.70;;;7.20;99.90;;;;;;5048543;28;20074;-46
2023/02/12 05:33:20;;;;;;;33.35;16.85;;;7.20;99.90;;;;;;5066247;28;20035;-44
2023/02/12 05:35:45;;;;;;;49.85;20.90;;;7.20;99.90;;;;;;5050534;28;20132;-48
2023/02/12 05:38:11;;;;;;;38.50;18.17;;;7.20;99.90;;;;;;5050304;28;20036;-47
2023/02/12 05:40:39;;;;;;;42.10;19.38;;;7.20;99.90;;;;;;5049722;28;20033;-46
2023/02/12 05:43:04;;;;;;;40.33;19.13;;;7.20;99.90;;;;;;5049747;28;20027;-48
2023/02/12 05:45:31;;;;;;;44.88;19.05;;;7.20;99.90;;;;;;5049784;28;20104;-46
2023/02/12 05:47:57;;;;;;;34.72;16.98;;;7.20;99.90;;;;;;5065222;28;20025;-47
2023/02/12 05:50:22;;;;;;;32.72;17.48;;;7.20;99.90;;;;;;5049708;28;20345;-46
2023/02/12 05:52:48;;;;;;;35.05;16.85;;;7.20;99.90;;;;;;5049762;28;20102;-45
2023/02/12 05:55:13;;;;;;;31.38;16.13;;;7.20;99.90;;;;;;5057999;28;20063;-46
2023/02/12 05:57:39;;;;;;;34.88;16.55;;;7.10;99.90;;;;;;5049409;28;20059;-45
2023/02/12 06:00:07;;;;;;;36.33;16.15;;;7.10;99.90;;;;;;5049586;28;20545;-47
2023/02/12 06:02:33;;;;;;;36.83;16.63;;;7.10;99.90;;;;;;5048946;28;20112;-46
2023/02/12 06:04:59;;;;;;;35.50;16.33;;;7.10;99.90;;;;;;5050177;28;20058;-47
2023/02/12 06:07:25;;;;;;;31.40;15.77;;;7.10;99.90;;;;;;5049631;28;20021;-46
2023/02/12 06:09:50;;;;;;;31.20;15.60;;;7.20;99.90;;;;;;5050392;28;20021;-45
2023/02/12 06:12:16;;;;;;;35.33;17.02;;;7.10;99.90;;;;;;5050661;28;20052;-47
2023/02/12 06:14:41;;;;;;;31.25;15.18;;;7.10;99.90;;;;;;5050640;28;20412;-45
2023/02/12 06:17:07;;;;;;;34.42;16.85;;;7.10;99.90;;;;;;5065375;28;20078;-46
2023/02/12 06:19:33;;;;;;;30.90;15.75;;;7.10;99.90;;;;;;5049192;28;20029;-45
2023/02/12 06:21:58;;;;;;;32.42;16.58;;;7.10;99.90;;;;;;5064127;28;20037;-49
2023/02/12 06:24:24;;;;;;;32.45;14.85;;;7.10;99.90;;;;;;5049096;28;20021;-46
2023/02/12 06:26:50;;;;;;;32.42;14.88;;;7.10;99.90;;;;;;5049484;28;20123;-46
2023/02/12 06:29:17;;;;;;;30.50;15.10;;;7.10;99.90;;;;;;5048892;28;20126;-46
2023/02/12 06:31:42;;;;;;;32.55;16.10;;;7.10;99.90;;;;;;5048749;28;20675;-47
2023/02/12 06:34:10;;;;;;;37.25;17.50;;;7.00;99.90;;;;;;5049633;28;20098;-45
2023/02/12 06:36:37;;;;;;;32.00;15.98;;;7.10;99.90;;;;;;5049509;28;20369;-46
2023/02/12 06:39:03;;;;;;;39.78;18.08;;;7.00;99.90;;;;;;5048966;28;20031;-47
2023/02/12 06:41:29;;;;;;;38.58;18.10;;;7.00;99.90;;;;;;5048183;28;20108;-47
2023/02/12 06:43:54;;;;;;;47.08;17.77;;;7.00;99.90;;;;;;5047962;28;20013;-46
2023/02/12 06:46:20;;;;;;;41.55;18.55;;;7.00;99.90;;;;;;5048190;28;20039;-47
2023/02/12 06:48:46;;;;;;;35.47;15.88;;;7.00;99.90;;;;;;5046025;28;20112;-46
2023/02/12 06:51:15;;;;;;;32.58;17.13;;;7.10;99.90;;;;;;5048363;28;20107;-44
2023/02/12 06:53:40;;;;;;;38.67;16.95;;;7.10;99.90;;;;;;5047955;28;20063;-46
2023/02/12 06:56:11;;;;;;;39.53;18.45;;;7.10;99.90;;;;;;5047648;28;20060;-45
2023/02/12 06:58:42;;;;;;;40.63;18.05;;;7.10;99.90;;;;;;5063858;28;20021;-46
2023/02/12 07:01:16;;;;;;;37.65;18.02;;;7.10;99.90;;;;;;5046084;28;20557;-46
2023/02/12 07:03:43;;;;;;;36.17;15.73;;;7.20;99.90;;;;;;5048625;28;20028;-45
2023/02/12 07:06:09;;;;;;;38.97;17.58;;;7.10;99.90;;;;;;5048946;28;20028;-46
2023/02/12 07:08:34;;;;;;;37.88;18.00;;;7.20;99.90;;;;;;5048885;28;20025;-46
2023/02/12 07:11:00;;;;;;;42.72;18.73;;;7.10;99.90;;;;;;5048062;28;20029;-48
2023/02/12 07:13:25;;;;;;;37.83;17.52;;;7.20;99.90;;;;;;5048574;28;20047;-46
2023/02/12 07:15:51;;;;;;;43.83;19.50;;;7.20;99.90;;;;;;5064074;28;20036;-45
2023/02/12 07:18:16;;;;;;;47.05;20.35;;;7.20;99.90;;;;;;5048461;28;20045;-46
2023/02/12 07:20:42;;;;;;;43.67;20.33;;;7.20;99.90;;;;;;5047906;28;20064;-46
2023/02/12 07:23:10;;;;;;;43.63;18.73;;;7.20;99.90;;;;;;5046582;28;20021;-45
2023/02/12 07:25:36;;;;;;;46.10;19.38;;;7.20;99.90;;;;;;5063407;28;20080;-45
2023/02/12 07:28:02;;;;;;;44.13;20.10;;;7.20;99.90;;;;;;5063408;28;20051;-46
2023/02/12 07:30:27;;;;;;;37.20;18.45;;;7.30;99.90;;;;;;5047751;28;20025;-46
2023/02/12 07:32:53;;;;;;;46.08;19.65;;;7.30;99.90;;;;;;5048273;28;20032;-46
2023/02/12 07:35:18;;;;;;;34.33;18.17;;;7.40;99.90;;;;;;5048383;28;20050;-48
2023/02/12 07:37:44;;;;;;;37.22;18.20;;;7.50;99.90;;;;;;5049830;28;20021;-45
2023/02/12 07:40:10;;;;;;;37.67;16.73;;;7.50;99.90;;;;;;5049227;28;20036;-44
2023/02/12 07:42:35;;;;;;;34.83;17.08;;;7.50;99.90;;;;;;5050340;28;20670;-47
2023/02/12 07:45:01;;;;;;;37.25;17.58;;;7.60;99.90;;;;;;5052478;28;20167;-46
2023/02/12 07:47:26;;;;;;;39.53;19.20;;;7.60;99.90;;;;;;5052409;28;20024;-49
2023/02/12 07:49:52;;;;;;;31.27;15.98;;;7.60;99.90;;;;;;5050527;28;20025;-47
2023/02/12 07:52:17;;;;;;;32.22;17.02;;;7.60;99.90;;;;;;5051325;28;20017;-46
2023/02/12 07:54:43;;;;;;;36.55;18.45;;;7.60;99.90;;;;;;5052322;28;20017;-46
2023/02/12 07:57:08;;;;;;;35.65;17.38;;;7.70;99.90;;;;;;5053498;28;20023;-45
2023/02/12 07:59:34;;;;;;;36.10;17.15;;;7.70;99.90;;;;;;5054651;28;20390;-46
2023/02/12 08:02:00;;;;;;;34.88;17.25;;;7.70;99.90;;;;;;5054579;28;20021;-46
2023/02/12 08:04:25;;;;;;;33.42;16.77;;;7.80;99.90;;;;;;5053436;28;20017;-46
2023/02/12 08:06:53;;;;;;;35.17;16.98;;;7.80;99.90;;;;;;5053118;28;20052;-46
2023/02/12 08:09:24;;;;;;;32.55;17.45;;;7.80;99.90;;;;;;5053005;28;20021;-46
2023/02/12 08:11:50;;;;;;;39.63;19.85;;;7.80;99.90;;;;;;5052729;28;20100;-46
2023/02/12 08:14:17;;;;;;;32.00;17.48;;;7.90;99.90;;;;;;5052667;28;20108;-45
2023/02/12 08:16:45;;;;;;;35.38;18.05;;;8.00;99.90;;;;;;5053049;28;20032;-44
2023/02/12 08:19:10;;;;;;;39.60;19.40;;;8.00;99.90;;;;;;5052675;28;20036;-46
2023/02/12 08:21:36;;;;;;;41.90;20.50;;;8.00;99.90;;;;;;5052718;28;20025;-46
2023/02/12 08:24:02;;;;;;;38.60;19.00;;;8.00;99.90;;;;;;5052645;28;20582;-45
2023/02/12 08:26:35;;;;;;;40.80;19.83;;;8.00;99.90;;;;;;5053023;28;20033;-46
2023/02/12 08:29:09;;;;;;;42.72;20.65;;;8.10;99.90;;;;;;5051017;28;20096;-46
2023/02/12 08:31:38;;;;;;;44.13;20.85;;;8.10;99.90;;;;;;5049981;28;20017;-45
2023/02/12 08:34:04;;;;;;;46.00;21.38;;;8.00;99.90;;;;;;5053200;28;20079;-45
2023/02/12 08:36:38;;;;;;;45.38;21.15;;;8.10;99.90;;;;;;5053154;28;20079;-45
2023/02/12 08:39:05;;;;;;;44.83;20.90;;;8.10;99.90;;;;;;5051655;28;20021;-48
2023/02/12 08:41:31;;;;;;;45.95;21.50;;;8.00;99.90;;;;;;5068014;28;20035;-47
2023/02/12 08:44:01;;;;;;;51.70;21.13;;;8.00;99.90;;;;;;5068053;28;20071;-45
2023/02/12 08:46:32;;;;;;;51.22;23.00;;;8.00;99.90;;;;;;5066604;28;20025;-46
2023/02/12 08:49:00;;;;;;;49.63;20.92;;;8.00;99.90;;;;;;5052820;28;20029;-46
2023/02/12 08:51:30;;;;;;;43.63;20.60;;;8.00;99.90;;;;;;5052414;28;20051;-46
2023/02/12 08:54:02;;;;;;;48.13;21.90;;;8.00;99.90;;;;;;5058929;28;20032;-45
2023/02/12 08:56:29;;;;;;;45.80;21.80;;;8.10;99.90;;;;;;5053032;28;20029;-46
2023/02/12 08:58:56;;;;;;;43.60;21.40;;;8.10;99.90;;;;;;5074149;28;20043;-45
2023/02/12 09:01:23;;;;;;;43.47;21.15;;;8.10;99.90;;;;;;5052865;28;20047;-46
2023/02/12 09:03:49;;;;;;;41.53;19.17;;;8.20;99.90;;;;;;5051261;28;20392;-47
2023/02/12 09:06:17;;;;;;;41.28;19.83;;;8.20;99.90;;;;;;5051181;28;20021;-46
2023/02/12 09:08:42;;;;;;;37.42;18.00;;;8.20;99.90;;;;;;5048841;28;20029;-47
2023/02/12 09:11:11;;;;;;;34.60;18.20;;;8.20;99.90;;;;;;5049732;28;20029;-47
2023/02/12 09:13:38;;;;;;;40.58;19.27;;;8.20;99.90;;;;;;5051362;28;20025;-46
2023/02/12 09:16:05;;;;;;;40.33;20.02;;;8.20;99.90;;;;;;5050887;28;20540;-48
2023/02/12 09:18:30;;;;;;;42.42;19.38;;;8.10;99.90;;;;;;5050920;28;20021;-45
2023/02/12 09:21:01;;;;;;;38.17;18.40;;;8.10;99.90;;;;;;5050206;28;20749;-45
2023/02/12 09:23:27;;;;;;;38.42;16.92;;;8.10;99.90;;;;;;5050519;28;20029;-47
2023/02/12 09:25:52;;;;;;;39.50;19.00;;;8.10;99.90;;;;;;5064749;28;20490;-46
2023/02/12 09:28:18;;;;;;;42.50;18.73;;;8.20;99.90;;;;;;5061624;28;20031;-46
2023/02/12 09:30:43;;;;;;;39.83;19.60;;;8.20;99.90;;;;;;5057219;28;20518;-46
2023/02/12 09:33:10;;;;;;;36.67;18.92;;;8.40;99.90;;;;;;5066111;28;20066;-45
2023/02/12 09:35:38;;;;;;;34.00;18.48;;;8.40;99.90;;;;;;5050684;28;20389;-47
2023/02/12 09:38:04;;;;;;;33.78;17.75;;;8.40;99.90;;;;;;5050863;28;20659;-47
2023/02/12 09:40:42;;;;;;;38.08;19.30;;;8.40;99.90;;;;;;5050021;28;20537;-46
2023/02/12 09:43:52;;;;;;;38.72;17.90;;;8.40;99.90;;;;;;5050361;28;20021;-45
2023/02/12 09:46:27;;;;;;;34.05;16.95;;;8.40;99.90;;;;;;5065836;28;20029;-45
2023/02/12 09:49:09;;;;;;;31.30;17.30;;;8.40;99.90;;;;;;5050194;28;20023;-45
2023/02/12 09:51:37;;;;;;;34.75;17.75;;;8.40;99.90;;;;;;5049844;28;20021;-45
2023/02/12 09:54:13;;;;;;;32.78;17.45;;;8.40;99.90;;;;;;5049757;28;20079;-47
2023/02/12 09:56:43;;;;;;;32.88;17.05;;;8.40;99.90;;;;;;5050207;28;20029;-46
2023/02/12 09:59:13;;;;;;;34.67;16.85;;;8.30;99.90;;;;;;5049881;28;20075;-45
2023/02/12 10:01:39;;;;;;;38.63;17.08;;;8.20;99.90;;;;;;5030114;28;20076;-45
2023/02/12 10:04:05;;;;;;;33.78;17.27;;;8.30;99.90;;;;;;5030514;28;20509;-45
2023/02/12 10:06:48;;;;;;;34.83;16.58;;;8.30;99.90;;;;;;5029513;28;20048;-46
2023/02/12 10:09:30;;;;;;;33.60;16.10;;;8.30;99.90;;;;;;5045613;28;20400;-45
2023/02/12 10:12:03;;;;;;;28.83;14.93;;;8.40;99.90;;;;;;5030433;28;20393;-45
2023/02/12 10:14:42;;;;;;;31.00;15.45;;;8.50;99.90;;;;;;5030073;28;20026;-46
2023/02/12 10:17:49;;;;;;;27.50;14.30;;;8.50;99.90;;;;;;5045323;28;20022;-46
2023/02/12 10:20:18;;;;;;;25.40;12.63;;;8.60;99.90;;;;;;5029701;28;20484;-46
2023/02/12 10:23:02;;;;;;;22.63;12.55;;;8.50;99.90;;;;;;5038251;28;20017;-45
2023/02/12 10:25:33;;;;;;;20.88;11.65;;;8.60;99.90;;;;;;5058278;28;20372;-45
2023/02/12 10:28:04;;;;;;;23.40;12.15;;;8.60;99.90;;;;;;5062107;28;20063;-45
2023/02/12 10:30:40;;;;;;;21.80;11.63;;;8.60;99.90;;;;;;5068430;28;20029;-49
2023/02/12 10:33:16;;;;;;;22.42;12.38;;;8.60;99.90;;;;;;5069647;28;20021;-45
2023/02/12 10:35:50;;;;;;;22.08;11.68;;;8.60;99.90;;;;;;5069455;28;20479;-45
2023/02/12 10:38:21;;;;;;;20.20;10.60;;;8.60;99.90;;;;;;5068335;28;20060;-45
2023/02/12 10:40:49;;;;;;;20.88;12.07;;;8.60;99.90;;;;;;5069826;28;20491;-45
2023/02/12 10:43:14;;;;;;;23.10;12.30;;;8.60;99.90;;;;;;5068536;28;20434;-46
2023/02/12 10:45:41;;;;;;;23.33;12.30;;;8.60;99.90;;;;;;5069578;28;20078;-45
2023/02/12 10:48:21;;;;;;;18.67;11.18;;;8.70;99.90;;;;;;5069871;28;20100;-45
2023/02/12 10:51:07;;;;;;;18.75;10.77;;;8.60;99.90;;;;;;5069101;28;20024;-45
2023/02/12 10:53:44;;;;;;;24.90;13.98;;;8.60;99.90;;;;;;5053924;28;20032;-46
2023/02/12 10:56:16;;;;;;;31.75;15.55;;;8.60;99.90;;;;;;5049265;28;20515;-46
2023/02/12 10:58:55;;;;;;;29.85;15.48;;;8.60;99.90;;;;;;5057351;28;20024;-46
2023/02/12 11:01:28;;;;;;;29.95;16.17;;;8.60;99.90;;;;;;5049006;28;20021;-47
2023/02/12 11:03:55;;;;;;;29.80;16.75;;;8.50;99.90;;;;;;5048862;28;20029;-47
2023/02/12 11:06:26;;;;;;;34.42;17.75;;;8.40;99.90;;;;;;5049470;28;20096;-46
2023/02/12 11:08:53;;;;;;;36.70;18.10;;;8.40;99.90;;;;;;5049531;28;20040;-46
2023/02/12 11:11:26;;;;;;;33.15;17.40;;;8.40;99.90;;;;;;5048923;28;20250;-45
2023/02/12 11:14:04;;;;;;;33.70;17.55;;;8.40;99.90;;;;;;5064977;28;20040;-45
2023/02/12 11:16:49;;;;;;;30.10;16.35;;;8.30;99.90;;;;;;5050315;28;20107;-45
2023/02/12 11:19:25;;;;;;;26.23;15.32;;;8.40;99.90;;;;;;5053424;28;20021;-45
2023/02/12 11:21:51;;;;;;;28.73;15.43;;;8.50;99.90;;;;;;5052896;28;20021;-45
2023/02/12 11:24:27;;;;;;;28.40;15.65;;;8.70;99.90;;;;;;5053358;28;20037;-46
2023/02/12 11:27:19;;;;;;;29.58;15.38;;;8.80;99.90;;;;;;5073494;28;20020;-45
2023/02/12 11:29:50;;;;;;;25.48;13.98;;;8.80;99.90;;;;;;5053337;28;20017;-45
2023/02/12 11:32:17;;;;;;;20.23;14.30;;;9.00;99.90;;;;;;5052840;28;20028;-45
2023/02/12 11:34:43;;;;;;;27.35;14.40;;;9.00;99.90;;;;;;5052943;28;20017;-46
2023/02/12 11:37:16;;;;;;;23.30;13.57;;;9.00;99.90;;;;;;5052862;28;20025;-45
2023/02/12 11:39:47;;;;;;;26.58;15.00;;;9.00;99.90;;;;;;5053022;28;20028;-45
2023/02/12 11:42:22;;;;;;;26.55;14.05;;;9.00;99.90;;;;;;5052719;28;20029;-47
2023/02/12 11:44:58;;;;;;;33.00;18.60;;;8.90;99.90;;;;;;5068169;28;20041;-46
2023/02/12 11:47:31;;;;;;;35.28;18.88;;;8.90;99.90;;;;;;5052858;28;20033;-45
2023/02/12 11:50:21;;;;;;;45.05;21.20;;;8.80;99.90;;;;;;5052896;28;20028;-46
2023/02/12 11:52:50;;;;;;;42.03;20.75;;;8.80;99.90;;;;;;5052088;28;20021;-46
2023/02/12 11:55:25;;;;;;;48.03;23.80;;;8.70;99.90;;;;;;5060589;28;20035;-46
2023/02/12 11:57:59;;;;;;;46.10;21.42;;;8.70;99.90;;;;;;5066121;28;20025;-46
2023/02/12 12:00:30;;;;;;;43.38;21.95;;;8.70;99.90;;;;;;5061385;28;20024;-46
2023/02/12 12:03:17;;;;;;;41.38;21.35;;;8.80;99.90;;;;;;5072609;28;20032;-46
2023/02/12 12:05:53;;;;;;;51.28;26.42;;;8.80;99.90;;;;;;5072490;28;20022;-46
2023/02/12 12:08:27;;;;;;;53.22;25.80;;;8.70;99.90;;;;;;5072318;28;20027;-45
2023/02/12 12:11:00;;;;;;;53.33;27.85;;;8.70;99.90;;;;;;5071944;28;20093;-45
2023/02/12 12:13:34;;;;;;;50.50;25.95;;;8.70;99.90;;;;;;5072497;28;20032;-45
2023/02/12 12:22:12;;;;;;;40.33;22.63;;;8.80;99.90;;;;;;5070998;28;20058;-45
2023/02/12 12:24:52;;;;;;;39.45;20.92;;;8.80;99.90;;;;;;5050616;28;20684;-46
2023/02/12 12:30:27;;;;;;;41.42;22.83;;;8.90;99.90;;;;;;5047082;28;20023;-45
2023/02/12 12:32:57;;;;;;;43.63;23.13;;;8.90;99.90;;;;;;5052090;28;20168;-46
2023/02/12 12:35:39;;;;;;;38.08;20.95;;;8.80;99.90;;;;;;5051999;28;20021;-48
2023/02/12 12:38:41;;;;;;;40.88;23.30;;;8.80;99.90;;;;;;5051939;28;20013;-46
2023/02/12 12:41:06;;;;;;;51.10;26.90;;;8.80;99.90;;;;;;5051204;28;20056;-46
2023/02/12 12:44:00;;;;;;;54.63;25.25;;;8.80;99.90;;;;;;5050157;28;20017;-47
2023/02/12 12:46:31;;;;;;;58.15;26.13;;;8.80;99.90;;;;;;5050344;28;20017;-45
2023/02/12 12:49:26;;;;;;;52.97;26.65;;;8.70;99.90;;;;;;5051588;28;20055;-48
2023/02/12 12:52:19;;;;;;;51.90;25.60;;;8.60;99.90;;;;;;5051173;28;20032;-47
2023/02/12 12:55:10;;;;;;;64.28;29.48;;;8.70;99.90;;;;;;5051685;28;20063;-46
2023/02/12 12:58:01;;;;;;;63.75;29.45;;;8.70;99.90;;;;;;5051778;28;20554;-47
2023/02/12 13:00:37;;;;;;;;;;;8.70;99.90;;;;;;5051187;28;20039;-48
2023/02/12 13:03:08;;;;;;;60.75;28.45;;;8.70;99.90;;;;;;5051514;28;19905;-47
2023/02/12 13:06:04;;;;;;;69.07;30.13;;;8.70;99.90;;;;;;5050059;28;20028;-48
2023/02/12 13:09:00;;;;;;;63.28;30.85;;;8.70;99.90;;;;;;5051528;28;20104;-46
2023/02/12 13:12:04;;;;;;;68.88;31.58;;;8.60;99.90;;;;;;5051324;28;20099;-49